Latest Weather Observations for Meekatharra

IDW60801

Issued at 10:35 am WST Wednesday 26 November 2014 (issued every 30 minutes, with the page automatically refreshed every 10 minutes)

About weather observations | Map of weather stations | Latest weather observations for WA | Other Formats
Station Details ID: 007045 Name: MEEKATHARRA AIRPORT Lat: -26.61 Lon: 118.54 Height: 517.0 m
Data from the previous 72 hours. | See also: Recent months at Meekatharra
Date/Time
WST
Temp
°C
App
Temp
°C
Dew
Point
Rel
Hum
%
Delta-T
°C
Wind Press
QNH
hPa
Press
MSL
hPa
Rain
since 9 am
mm
Dir
 
Spd
km/h
Gust
km/h
Spd
kts
Gust
kts
26/10:30am 28.4 25.5 12.9 38 9.3 NNE 20 32 11 17 1013.3 - 0.2
26/10:00am 28.2 24.8 12.4 37 9.4 NNE 22 33 12 18 1013.5 - 0.2
26/09:30am 26.2 22.9 12.7 43 8.0 NNE 22 32 12 17 1013.8 - 0.2
26/09:00am 25.3 23.4 14.3 50 6.7 NNE 17 24 9 13 1013.7 1010.6 9.2
26/08:30am 23.7 21.1 13.8 53 5.9 N 20 28 11 15 1013.7 - 9.2
26/08:00am 23.9 20.6 12.7 49 6.6 NE 22 32 12 17 1013.6 - 9.2
26/07:30am 23.4 20.6 12.7 51 6.3 NNE 19 24 10 13 1013.5 - 9.2
26/07:04am 22.5 17.9 13.4 56 5.4 ENE 30 48 16 26 1012.9 - 9.2
26/07:00am 23.0 17.2 12.6 52 6.1 E 35 48 19 26 1012.6 - 9.2
26/06:38am 23.3 16.5 11.9 48 6.6 NE 39 52 21 28 1012.2 - 9.2
26/06:30am 24.0 18.2 10.9 43 7.5 E 32 43 17 23 1011.7 - 9.2
26/06:00am 21.1 13.1 14.6 66 3.9 ENE 50 67 27 36 1012.7 1009.5 9.2
26/05:47am 21.7 13.4 13.8 60 4.7 NE 50 80 27 43 1011.3 - 9.2
26/05:35am 21.1 14.8 14.6 66 3.9 NE 41 59 22 32 1013.9 - 9.0
26/05:30am 20.5 15.7 15.6 73 3.0 NNE 35 54 19 29 1013.9 - 9.0
26/05:27am 21.0 16.6 15.2 69 3.5 NNE 32 50 17 27 1014.6 - 8.8
26/05:25am 21.3 17.2 15.0 67 3.8 NNE 30 43 16 23 1015.1 - 8.8
26/05:00am 21.2 19.2 15.4 69 3.5 NW 20 24 11 13 1016.7 - 8.8
26/04:30am 23.0 20.3 12.8 52 6.0 N 19 24 10 13 1015.6 - 8.8
26/04:00am 22.6 19.9 12.9 54 5.7 NE 19 30 10 16 1013.7 - 8.8
26/03:30am 22.4 19.7 13.0 55 5.5 NE 19 26 10 14 1013.1 - 8.8
26/03:00am 22.2 20.1 13.6 58 5.1 NE 17 22 9 12 1013.3 1010.1 8.8
26/02:30am 21.5 19.5 14.9 66 4.0 ENE 19 26 10 14 1013.1 - 8.8
26/02:00am 22.7 20.5 13.2 55 5.6 NE 17 24 9 13 1013.5 - 8.6
26/01:30am 22.3 20.2 13.7 58 5.1 NE 17 26 9 14 1013.2 - 8.6
26/01:00am 23.6 20.5 12.3 49 6.6 NE 20 28 11 15 1013.2 - 8.6
26/12:30am 23.1 19.3 12.5 51 6.2 ENE 24 37 13 20 1012.9 - 8.6
26/12:00am 22.9 19.6 12.9 53 5.9 ENE 22 33 12 18 1013.2 1010.0 8.6
 
Date/Time
WST
Temp
°C
App
Temp
°C
Dew
Point
Rel
Hum
%
Delta-T
°C
Wind Press
QNH
hPa
Press
MSL
hPa
Rain
since 9 am
mm
Dir
 
Spd
km/h
Gust
km/h
Spd
kts
Gust
kts
25/11:30pm 23.1 17.2 12.5 51 6.2 E 35 57 19 31 1012.9 - 8.6
25/11:00pm 23.3 17.8 12.5 50 6.3 E 33 56 18 30 1013.1 - 8.6
25/10:58pm 23.3 17.8 12.5 50 6.3 E 33 52 18 28 1013.2 - 8.6
25/10:30pm 21.9 16.3 14.4 62 4.5 E 37 46 20 25 1013.5 - 8.4
25/10:03pm 21.8 15.1 14.5 63 4.4 E 43 61 23 33 1013.8 - 8.4
25/10:00pm 21.5 14.7 14.9 66 4.0 E 44 59 24 32 1013.9 - 8.4
25/09:53pm 21.4 14.8 14.9 66 3.9 E 43 59 23 32 1013.9 - 8.4
25/09:31pm 20.9 14.1 15.8 72 3.1 E 46 65 25 35 1014.6 - 8.0
25/09:30pm 20.9 14.7 16.0 73 3.0 E 43 59 23 32 1014.8 - 7.8
25/09:28pm 21.1 15.7 16.1 73 3.1 E 39 59 21 32 1015.3 - 7.8
25/09:27pm 21.0 16.1 16.3 74 2.9 E 37 54 20 29 1015.6 - 7.6
25/09:23pm 22.1 17.8 15.4 65 4.1 ENE 32 50 17 27 1016.6 - 7.2
25/09:00pm 23.1 18.0 14.9 60 5.0 ENE 35 50 19 27 1015.7 1012.6 7.0
25/08:30pm 24.1 19.3 14.1 53 6.0 ENE 32 41 17 22 1015.3 - 6.4
25/08:00pm 24.2 22.6 15.0 56 5.6 E 17 24 9 13 1015.4 - 6.4
25/07:50pm 24.7 22.3 14.3 52 6.3 NE 20 35 11 19 1014.9 - 6.4
25/07:30pm 24.8 20.4 14.2 51 6.4 SE 30 41 16 22 1012.9 - 6.4
25/07:00pm 23.5 19.5 15.3 60 5.0 SE 30 37 16 20 1013.0 - 6.4
25/06:00pm 29.3 25.2 11.6 33 10.5 S 24 30 13 16 1010.3 1007.1 0.0
25/05:30pm 30.2 27.1 10.3 29 11.6 ESE 17 22 9 12 1009.7 - 0.0
25/05:27pm 29.9 27.1 11.3 31 11.0 SE 17 22 9 12 1009.8 - 0.0
25/05:07pm 30.1 27.4 11.8 32 10.9 ENE 17 22 9 12 1010.5 - 0.0
25/05:00pm 31.8 27.8 6.7 21 13.9 ESE 17 20 9 11 1010.2 - 0.0
25/04:30pm 32.5 27.8 6.2 19 14.5 WNW 20 28 11 15 1010.6 - 0.0
25/04:00pm 34.1 28.7 2.4 13 16.6 NE 20 39 11 21 1009.1 - 0.0
25/03:30pm 34.7 29.0 4.8 15 16.3 NNE 24 39 13 21 1009.4 - 0.0
25/03:00pm 35.7 30.3 4.6 14 17.0 NE 22 35 12 19 1010.2 1006.9 0.0
25/02:30pm 35.9 30.5 4.7 14 17.1 ENE 22 43 12 23 1010.4 - 0.0
25/02:16pm 37.0 30.3 3.9 13 18.0 ENE 28 46 15 25 1010.7 - 0.0
25/02:00pm 36.6 30.4 4.5 13 17.6 NE 26 41 14 22 1011.2 - 0.0
25/01:48pm 36.3 29.7 4.1 13 17.5 ENE 28 46 15 25 1011.3 - 0.0
25/01:30pm 36.9 31.2 4.8 13 17.7 NE 24 39 13 21 1011.8 - 0.0
25/01:00pm 35.7 29.9 4.5 14 17.0 NNE 24 37 13 20 1012.4 - 0.0
25/12:30pm 36.6 30.8 4.4 13 17.6 N 24 39 13 21 1012.7 - 0.0
25/12:00pm 35.6 29.1 4.7 14 16.9 NE 28 46 15 25 1013.0 1009.8 0.0
25/11:30am 34.5 27.9 4.3 15 16.3 NE 28 44 15 24 1013.5 - 0.0
25/11:00am 34.4 27.4 4.1 15 16.3 NE 30 41 16 22 1013.8 - 0.0
25/10:37am 34.7 28.1 4.0 14 16.5 NE 28 46 15 25 1014.1 - 0.0
25/10:30am 33.9 26.4 3.7 15 16.1 NE 32 48 17 26 1014.2 - 0.0
25/10:13am 34.0 26.5 3.2 14 16.3 NE 32 52 17 28 1014.3 - 0.0
25/10:00am 33.4 25.8 2.9 14 16.0 ENE 32 43 17 23 1014.4 - 0.0
25/09:30am 30.9 22.3 2.5 16 14.6 ENE 37 50 20 27 1014.7 - 0.0
25/09:20am 31.7 23.8 2.4 15 15.1 ENE 33 52 18 28 1014.7 - 0.0
25/09:00am 30.7 22.4 2.4 16 14.5 ENE 35 48 19 26 1014.8 1011.6 0.0
25/08:30am 29.5 21.2 1.9 17 13.9 ENE 35 46 19 25 1015.1 - 0.0
25/08:00am 29.4 21.4 1.7 17 13.9 ENE 33 46 18 25 1015.2 - 0.0
25/07:32am 27.7 19.7 1.7 18 12.9 E 33 56 18 30 1015.4 - 0.0
25/07:30am 27.7 19.6 1.3 18 13.0 E 33 48 18 26 1015.4 - 0.0
25/07:00am 26.6 18.7 1.2 19 12.4 E 32 41 17 22 1015.3 - 0.0
25/06:30am 25.9 18.7 0.5 19 12.2 E 28 43 15 23 1015.0 - 0.0
25/06:00am 24.8 17.9 0.4 20 11.6 E 26 37 14 20 1014.8 1011.6 0.0
25/05:30am 24.5 17.3 0.5 20 11.4 E 28 35 15 19 1014.6 - 0.0
25/05:00am 24.6 18.1 0.3 20 11.5 E 24 33 13 18 1014.4 - 0.0
25/04:30am 24.9 18.0 0.2 19 11.7 E 26 35 14 19 1014.2 - 0.0
25/04:00am 25.4 18.4 -0.2 18 12.1 E 26 39 14 21 1014.1 - 0.0
25/03:30am 25.6 18.7 0.2 19 12.1 E 26 37 14 20 1014.2 - 0.0
25/03:00am 26.0 19.4 -0.1 18 12.4 E 24 33 13 18 1013.9 1010.8 0.0
25/02:30am 26.2 18.9 0.0 18 12.5 E 28 37 15 20 1013.7 - 0.0
25/02:00am 26.5 19.2 -0.1 17 12.7 E 28 39 15 21 1013.4 - 0.0
25/01:30am 26.9 19.5 -0.4 16 13.0 E 28 41 15 22 1013.3 - 0.0
25/01:10am 27.0 19.7 0.2 17 12.9 ESE 28 46 15 25 1013.3 - 0.0
25/01:00am 27.0 20.2 0.6 18 12.8 ESE 26 35 14 19 1013.2 - 0.0
25/12:30am 27.4 20.2 0.7 17 13.0 ESE 28 39 15 21 1013.2 - 0.0
25/12:00am 27.9 21.1 0.7 17 13.3 ESE 26 35 14 19 1013.3 1010.1 0.0
 
Date/Time
WST
Temp
°C
App
Temp
°C
Dew
Point
Rel
Hum
%
Delta-T
°C
Wind Press
QNH
hPa
Press
MSL
hPa
Rain
since 9 am
mm
Dir
 
Spd
km/h
Gust
km/h
Spd
kts
Gust
kts
24/11:30pm 28.3 21.5 0.8 17 13.5 ESE 26 37 14 20 1013.3 - 0.0
24/11:00pm 28.8 22.4 0.8 16 13.8 ESE 24 37 13 20 1013.4 - 0.0
24/10:30pm 29.3 22.9 1.1 16 14.0 ESE 24 32 13 17 1013.5 - 0.0
24/10:00pm 29.6 23.7 1.4 16 14.1 ESE 22 30 12 16 1013.4 - 0.0
24/09:30pm 29.9 24.4 1.7 16 14.2 ESE 20 28 11 15 1013.6 - 0.0
24/09:00pm 30.3 24.8 1.9 16 14.4 ESE 20 28 11 15 1013.6 1010.4 0.0
24/08:30pm 30.7 25.2 1.6 15 14.7 ESE 20 26 11 14 1013.5 - 0.0
24/08:00pm 31.2 25.6 1.3 15 15.1 ESE 20 26 11 14 1013.3 - 0.0
24/07:30pm 31.8 25.8 1.1 14 15.5 SE 22 33 12 18 1013.2 - 0.0
24/07:00pm 32.2 26.2 0.9 13 15.8 SE 22 33 12 18 1012.9 - 0.0
24/06:30pm 32.8 26.7 0.3 12 16.3 SE 22 37 12 20 1012.6 - 0.0
24/06:00pm 33.4 27.1 -0.8 11 16.9 SE 22 32 12 17 1012.4 1009.2 0.0
24/05:30pm 34.6 29.0 -3.1 9 18.1 ESE 17 28 9 15 1012.3 - 0.0
24/05:00pm 34.9 29.7 -2.7 9 18.2 E 15 20 8 11 1012.2 - 0.0
24/04:30pm 34.8 29.8 -1.5 10 17.9 E 15 26 8 14 1012.3 - 0.0
24/04:00pm 34.9 29.6 -0.7 10 17.8 NE 17 26 9 14 1012.5 - 0.0
24/03:30pm 36.4 30.3 -2.1 8 19.0 SSE 20 24 11 13 1012.6 - 0.0
24/03:00pm 35.0 30.2 -2.9 9 18.3 ENE 13 24 7 13 1012.9 1009.7 0.0
24/02:30pm 36.2 31.4 -2.2 8 18.9 SE 13 24 7 13 1013.2 - 0.0
24/02:00pm 35.6 30.2 -4.8 7 19.0 SE 15 28 8 15 1013.5 - 0.0
24/01:30pm 35.2 29.5 -3.9 8 18.6 SE 17 35 9 19 1013.8 - 0.0
24/01:00pm 33.9 27.9 -3.3 9 17.7 ESE 19 28 10 15 1014.4 - 0.0
24/12:30pm 33.2 27.1 -2.4 10 17.1 ESE 20 32 11 17 1014.8 - 0.0
24/12:00pm 32.5 26.5 -3.0 10 16.8 ESE 19 26 10 14 1015.1 1011.9 0.0
24/11:30am 32.8 26.7 -2.6 10 16.9 ESE 20 35 11 19 1015.5 - 0.0
24/11:00am 32.2 25.6 -2.9 10 16.6 ESE 22 37 12 20 1015.9 - 0.0
24/10:30am 31.7 24.8 -2.9 10 16.3 ESE 24 39 13 21 1016.4 - 0.0
24/10:00am 31.1 24.5 -3.7 10 16.1 E 22 37 12 20 1016.7 - 0.0
24/09:30am 29.9 22.4 -4.2 10 15.5 E 26 37 14 20 1017.0 - 0.0
24/09:00am 28.5 20.3 -4.2 11 14.7 ESE 30 43 16 23 1017.1 1013.9 0.0
24/08:30am 28.4 20.6 -3.5 12 14.5 E 28 37 15 20 1017.2 - 0.0
24/08:00am 26.4 18.9 3.3 22 11.7 ESE 32 43 17 23 1017.2 - 0.0
24/07:38am 25.3 18.3 1.8 21 11.5 E 28 46 15 25 1017.2 - 0.0
24/07:30am 25.2 18.1 1.5 21 11.5 ESE 28 41 15 22 1017.3 - 0.0
24/07:00am 23.7 17.1 -0.1 20 11.1 ESE 24 35 13 19 1017.0 - 0.0
24/06:30am 21.8 15.4 -1.8 20 10.5 SE 22 32 12 17 1016.8 - 0.0
24/06:00am 21.0 15.6 -1.1 22 9.9 SSE 17 24 9 13 1016.6 1013.4 0.0
24/05:30am 20.1 14.7 -1.4 23 9.5 SSE 17 20 9 11 1016.2 - 0.0
24/05:00am 19.9 14.5 -1.4 23 9.4 SSE 17 24 9 13 1015.8 - 0.0
24/04:30am 20.4 14.6 -1.5 23 9.7 SE 19 26 10 14 1015.5 - 0.0
24/04:00am 20.9 14.8 -2.1 21 10.1 SE 20 26 11 14 1015.2 - 0.0
24/03:30am 21.2 15.4 -1.8 21 10.2 SSE 19 26 10 14 1015.0 - 0.0
24/03:00am 21.5 16.1 -1.6 21 10.3 SSE 17 24 9 13 1014.7 1011.5 0.0
24/02:30am 21.8 16.4 -1.4 21 10.4 SSE 17 24 9 13 1014.5 - 0.0
24/02:00am 22.2 17.4 -0.1 22 10.3 SSE 15 20 8 11 1014.5 - 0.0
24/01:30am 22.3 18.1 1.5 25 9.9 SSE 13 15 7 8 1014.5 - 0.0
24/01:00am 23.0 18.4 1.8 24 10.2 SSE 15 20 8 11 1014.4 - 0.0
24/12:30am 23.7 18.9 2.5 25 10.4 S 17 20 9 11 1014.5 - 0.0
24/12:00am 24.3 19.6 2.9 24 10.6 S 17 24 9 13 1014.6 1011.4 0.0
 
Date/Time
WST
Temp
°C
App
Temp
°C
Dew
Point
Rel
Hum
%
Delta-T
°C
Wind Press
QNH
hPa
Press
MSL
hPa
Rain
since 9 am
mm
Dir
 
Spd
km/h
Gust
km/h
Spd
kts
Gust
kts
23/11:30pm 24.8 19.7 3.2 24 10.8 S 19 24 10 13 1014.6 - 0.0
23/11:00pm 25.4 20.7 3.0 23 11.2 SSE 17 20 9 11 1014.7 - 0.0
23/10:30pm 26.0 20.8 2.5 21 11.7 S 19 26 10 14 1014.8 - 0.0
23/10:00pm 26.3 21.6 3.1 22 11.7 S 17 20 9 11 1014.8 - 0.0
23/09:30pm 27.1 21.9 2.6 20 12.3 S 19 26 10 14 1014.8 - 0.0
23/09:00pm 27.7 22.5 2.5 19 12.7 S 19 24 10 13 1014.6 1011.4 0.0
23/08:30pm 28.2 23.4 2.4 19 13.0 S 17 28 9 15 1014.4 - 0.0
23/08:00pm 28.9 23.9 1.4 17 13.7 SSW 17 24 9 13 1014.2 - 0.0
23/07:30pm 29.4 24.5 1.7 17 13.9 S 17 20 9 11 1013.6 - 0.0
23/07:00pm 30.1 25.4 1.0 15 14.5 SSW 15 20 8 11 1013.3 - 0.0
23/06:30pm 31.0 26.6 0.4 14 15.2 SSW 13 22 7 12 1012.8 - 0.0
23/06:00pm 31.6 26.8 0.2 13 15.6 SW 15 32 8 17 1012.4 1009.2 0.0
23/05:30pm 31.7 26.4 -0.4 12 15.8 SW 17 24 9 13 1012.2 - 0.0
23/05:00pm 32.7 27.6 0.9 13 16.1 S 17 22 9 12 1011.8 - 0.0
23/04:30pm 32.2 27.7 0.0 12 16.0 SW 13 20 7 11 1011.7 - 0.0
23/04:00pm 33.1 28.5 -0.7 11 16.7 SW 13 20 7 11 1011.7 - 0.0
23/03:30pm 32.6 26.8 -1.6 11 16.6 SSW 19 24 10 13 1011.8 - 0.0
23/03:00pm 32.9 28.8 0.1 12 16.4 S 11 15 6 8 1012.1 1008.9 0.0
23/02:30pm 32.7 28.8 -1.3 11 16.6 SW 9 20 5 11 1012.2 - 0.0
23/02:00pm 32.1 28.5 0.6 13 15.8 NW 9 19 5 10 1012.5 - 0.0
23/01:30pm 32.0 26.8 -2.4 11 16.4 W 15 26 8 14 1012.8 - 0.0
23/01:00pm 32.5 26.8 -0.5 12 16.3 WSW 19 26 10 14 1013.0 - 0.0
23/12:30pm 30.7 26.5 -0.8 13 15.3 SW 11 24 6 13 1013.2 - 0.0
23/12:00pm 31.1 25.0 -2.1 11 15.8 SW 20 26 11 14 1013.5 1010.3 0.0
23/11:30am 31.4 27.2 -1.2 12 15.8 WSW 11 24 6 13 1013.8 - 0.0
23/11:00am 29.0 24.3 0.8 16 13.9 SSW 15 20 8 11 1014.3 - 0.0

Other Formats:

Comma delimited format used in spreadsheet applications
http://www.bom.gov.au/fwo/IDW60801/IDW60801.94430.axf

JavaScript Object Notation format (JSON) in row-major order
http://www.bom.gov.au/fwo/IDW60801/IDW60801.94430.json